| time (UTC) | temp F | wind direction | speed knots | gust knots | rain 1hr in | rain 24hr in | rain mn in | humidity % | barometer mb |
| 20260508171943 | 60 | 287 | 7.0 | 18.2 | 0.00 | 0.00 | 0.00 | 24 | 1020.7 |
| 20260508171442 | 61 | 24 | 6.1 | 18.2 | 0.00 | 0.00 | 0.00 | 26 | 1020.6 |
| 20260508170943 | 60 | 248 | 5.2 | 13.0 | 0.00 | 0.00 | 0.00 | 27 | 1020.7 |
| 20260508170444 | 61 | 52 | 6.1 | 14.8 | 0.00 | 0.00 | 0.00 | 24 | 1020.8 |
| 20260508165939 | 61 | 297 | 5.2 | 18.2 | 0.00 | 0.00 | 0.00 | 27 | 1020.7 |
| 20260508165439 | 61 | 37 | 7.0 | 18.2 | 0.00 | 0.00 | 0.00 | 27 | 1020.6 |
| 20260508165209 | 60 | 318 | 7.8 | 13.0 | 0.00 | 0.00 | 0.00 | 26 | 1020.7 |
| 20260508164438 | 59 | 267 | 5.2 | 12.2 | 0.00 | 0.00 | 0.00 | 27 | 1020.7 |
| 20260508163939 | 60 | 94 | 4.3 | 12.2 | 0.00 | 0.00 | 0.00 | 26 | 1020.4 |
| 20260508163440 | 59 | 87 | 4.3 | 12.2 | 0.00 | 0.00 | 0.00 | 25 | 1020.7 |
| 20260508162935 | 59 | 327 | 7.0 | 18.2 | 0.00 | 0.00 | 0.00 | 26 | 1020.7 |
| 20260508162435 | 59 | 31 | 8.7 | 18.2 | 0.00 | 0.00 | 0.00 | 26 | 1020.7 |
| 20260508161935 | 59 | 35 | 7.8 | 15.6 | 0.00 | 0.00 | 0.00 | 27 | 1020.6 |
| 20260508161705 | 59 | 287 | 5.2 | 12.2 | 0.00 | 0.00 | 0.00 | 26 | 1020.7 |
| 20260508161208 | 58 | 14 | 5.2 | 12.2 | 0.00 | 0.00 | 0.00 | 28 | 1020.8 |
| 20260508160435 | 58 | 311 | 6.1 | 13.9 | 0.00 | 0.00 | 0.00 | 27 | 1020.8 |
| 20260508155930 | 58 | 5 | 7.0 | 13.9 | 0.00 | 0.00 | 0.00 | 27 | 1021.0 |
| 20260508155431 | 57 | 22 | 7.8 | 15.6 | 0.00 | 0.00 | 0.00 | 31 | 1021.0 |
| 20260508154931 | 57 | 56 | 8.7 | 16.5 | 0.00 | 0.00 | 0.00 | 29 | 1021.0 |
| 20260508154431 | 57 | 5 | 8.7 | 16.5 | 0.00 | 0.00 | 0.00 | 33 | 1021.0 |
| 20260508153931 | 57 | 298 | 6.1 | 16.5 | 0.00 | 0.00 | 0.00 | 31 | 1021.0 |
| 20260508153432 | 56 | 284 | 3.5 | 10.4 | 0.00 | 0.00 | 0.00 | 32 | 1021.2 |
| 20260508152926 | 56 | 84 | 4.3 | 10.4 | 0.00 | 0.00 | 0.00 | 32 | 1021.1 |
| 20260508152658 | 56 | 211 | 2.6 | 10.4 | 0.00 | 0.00 | 0.00 | 33 | 1021.1 |
| 20260508151926 | 55 | 83 | 1.7 | 10.4 | 0.00 | 0.00 | 0.00 | 34 | 1021.1 |
| 20260508151426 | 55 | 259 | 2.6 | 6.1 | 0.00 | 0.00 | 0.00 | 36 | 1021.2 |
| 20260508150926 | 54 | 102 | 3.5 | 10.4 | 0.00 | 0.00 | 0.00 | 35 | 1021.2 |
| 20260508150428 | 53 | 130 | 1.7 | 10.4 | 0.00 | 0.00 | 0.00 | 36 | 1021.2 |
| 20260508145920 | 52 | 189 | 1.7 | 5.2 | 0.00 | 0.00 | 0.00 | 42 | 1021.2 |
| 20260508145421 | 51 | 164 | 2.6 | 6.1 | 0.00 | 0.00 | 0.00 | 45 | 1021.2 |
| 20260508144921 | 49 | 207 | 2.6 | 6.1 | 0.00 | 0.00 | 0.00 | 49 | 1021.2 |
| 20260508144420 | 48 | 264 | 2.6 | 6.1 | 0.00 | 0.00 | 0.00 | 50 | 1021.4 |
| 20260508144145 | 47 | 172 | 2.6 | 6.1 | 0.00 | 0.00 | 0.00 | 50 | 1021.4 |
| 20260508143414 | 46 | 171 | 3.5 | 5.2 | 0.00 | 0.00 | 0.00 | 54 | 1021.4 |
| 20260508142913 | 45 | 194 | 3.5 | 6.1 | 0.00 | 0.00 | 0.00 | 55 | 1021.4 |
| 20260508142412 | 44 | 167 | 2.6 | 6.1 | 0.00 | 0.00 | 0.00 | 55 | 1021.4 |
| 20260508141909 | 44 | 188 | 2.6 | 6.1 | 0.00 | 0.00 | 0.00 | 58 | 1021.4 |
| 20260508141409 | 43 | 202 | 3.5 | 6.1 | 0.00 | 0.00 | 0.00 | 58 | 1021.4 |
| 20260508140904 | 42 | 170 | 3.5 | 6.1 | 0.00 | 0.00 | 0.00 | 57 | 1021.4 |
| 20260508140632 | 42 | 184 | 3.5 | 6.1 | 0.00 | 0.00 | 0.00 | 59 | 1021.5 |
| 20260508135901 | 42 | 171 | 5.2 | 7.8 | 0.00 | 0.00 | 0.00 | 61 | 1021.5 |
| 20260508135402 | 41 | 175 | 5.2 | 8.7 | 0.00 | 0.00 | 0.00 | 62 | 1021.5 |
| 20260508134902 | 40 | 156 | 5.2 | 8.7 | 0.00 | 0.00 | 0.00 | 63 | 1021.5 |
| 20260508134400 | 39 | 180 | 6.1 | 8.7 | 0.00 | 0.00 | 0.00 | 67 | 1021.5 |
| 20260508134129 | 38 | 153 | 6.1 | 8.7 | 0.00 | 0.00 | 0.00 | 69 | 1021.4 |
| 20260508133405 | 36 | 164 | 3.5 | 6.1 | 0.00 | 0.00 | 0.00 | 73 | 1021.5 |
| 20260508133400 | 38 | 165 | 4.3 | 7.8 | 0.00 | 0.00 | 0.00 | 69 | 1021.6 |
| 20260508132359 | 34 | 165 | 3.5 | 6.1 | 0.00 | 0.00 | 0.00 | 78 | 1021.4 |
| 20260508131859 | 33 | 142 | 3.5 | 6.1 | 0.00 | 0.00 | 0.00 | 79 | 1021.4 |
| 20260508131404 | 32 | 148 | 2.6 | 4.3 | 0.00 | 0.00 | 0.00 | 78 | 1021.6 |
| 20260508131400 | 32 | 159 | 2.6 | 4.3 | 0.00 | 0.00 | 0.00 | 79 | 1021.5 |
| 20260508130356 | 31 | 221 | 2.6 | 4.3 | 0.00 | 0.00 | 0.00 | 80 | 1021.5 |
| 20260508125855 | 31 | 242 | 2.6 | 6.1 | 0.00 | 0.00 | 0.00 | 81 | 1021.5 |
| 20260508125354 | 31 | 213 | 3.5 | 6.1 | 0.00 | 0.00 | 0.00 | 81 | 1021.4 |
| 20260508124854 | 31 | 225 | 2.6 | 5.2 | 0.00 | 0.00 | 0.00 | 80 | 1021.4 |
| 20260508124354 | 31 | 192 | 3.5 | 7.8 | 0.00 | 0.00 | 0.00 | 80 | 1021.4 |
| 20260508123855 | 31 | 177 | 3.5 | 7.8 | 0.00 | 0.00 | 0.00 | 81 | 1021.4 |
| 20260508123354 | 30 | 169 | 3.5 | 7.0 | 0.00 | 0.00 | 0.00 | 80 | 1021.2 |
| 20260508122850 | 31 | 169 | 3.5 | 7.0 | 0.00 | 0.00 | 0.00 | 79 | 1021.4 |
| 20260508122619 | 31 | 161 | 3.5 | 6.1 | 0.00 | 0.00 | 0.00 | 79 | 1021.4 |
| 20260508121844 | 31 | 186 | 3.5 | 6.1 | 0.00 | 0.00 | 0.00 | 81 | 1021.2 |
| 20260508121343 | 30 | 167 | 3.5 | 6.1 | 0.00 | 0.00 | 0.00 | 81 | 1021.2 |
| 20260508120843 | 30 | 180 | 3.5 | 6.1 | 0.00 | 0.00 | 0.00 | 80 | 1021.1 |
| 20260508120338 | 31 | 146 | 3.5 | 4.3 | 0.00 | 0.00 | 0.00 | 79 | 1021.1 |
| 20260508115838 | 30 | 219 | 2.6 | 4.3 | 0.00 | 0.00 | 0.00 | 80 | 1021.1 |
| 20260508115338 | 30 | 220 | 2.6 | 4.3 | 0.00 | 0.00 | 0.00 | 79 | 1021.1 |
| 20260508114839 | 31 | 213 | 2.6 | 4.3 | 0.00 | 0.00 | 0.00 | 79 | 1021.0 |
| 20260508114337 | 30 | 177 | 2.6 | 4.3 | 0.00 | 0.00 | 0.00 | 79 | 1021.0 |
| 20260508113837 | 30 | 211 | 2.6 | 4.3 | 0.00 | 0.00 | 0.00 | 79 | 1021.1 |
| 20260508113329 | 30 | 216 | 1.7 | 4.3 | 0.00 | 0.00 | 0.00 | 80 | 1021.2 |
| 20260508112831 | 31 | 163 | 1.7 | 4.3 | 0.00 | 0.00 | 0.00 | 78 | 1021.1 |
| 20260508112330 | 31 | 200 | 2.6 | 6.1 | 0.00 | 0.00 | 0.00 | 78 | 1021.0 |
| 20260508111832 | 31 | 199 | 2.6 | 6.1 | 0.00 | 0.00 | 0.00 | 78 | 1021.2 |
| 20260508111331 | 31 | 204 | 3.5 | 4.3 | 0.00 | 0.00 | 0.00 | 77 | 1021.2 |
| 20260508110830 | 31 | 224 | 2.6 | 4.3 | 0.00 | 0.00 | 0.00 | 78 | 1021.2 |
| 20260508110324 | 30 | 250 | 2.6 | 3.5 | 0.00 | 0.00 | 0.00 | 78 | 1021.2 |
| 20260508105824 | 30 | 213 | 2.6 | 3.5 | 0.00 | 0.00 | 0.00 | 78 | 1021.2 |
| 20260508105556 | 30 | 219 | 2.6 | 4.3 | 0.00 | 0.00 | 0.00 | 78 | 1021.2 |
| 20260508104826 | 31 | 173 | 2.6 | 4.3 | 0.00 | 0.00 | 0.00 | 79 | 1021.4 |
| 20260508104325 | 31 | 175 | 2.6 | 4.3 | 0.00 | 0.00 | 0.00 | 77 | 1021.4 |
| 20260508103825 | 31 | 182 | 2.6 | 3.5 | 0.00 | 0.00 | 0.00 | 79 | 1021.2 |
| 20260508103319 | 31 | 198 | 2.6 | 4.3 | 0.00 | 0.00 | 0.00 | 78 | 1021.2 |
| 20260508102818 | 32 | 167 | 2.6 | 4.3 | 0.00 | 0.00 | 0.00 | 76 | 1021.4 |
| 20260508102318 | 32 | 147 | 2.6 | 4.3 | 0.00 | 0.00 | 0.00 | 77 | 1021.2 |
| 20260508101819 | 32 | 200 | 2.6 | 5.2 | 0.00 | 0.00 | 0.00 | 76 | 1021.4 |
| 20260508101319 | 32 | 167 | 3.5 | 5.2 | 0.00 | 0.00 | 0.00 | 76 | 1021.4 |
| 20260508100819 | 33 | 155 | 2.6 | 5.2 | 0.00 | 0.00 | 0.00 | 76 | 1021.4 |
| 20260508100313 | 33 | 173 | 2.6 | 4.3 | 0.00 | 0.00 | 0.00 | 75 | 1021.2 |
| 20260508095812 | 33 | 182 | 3.5 | 5.2 | 0.00 | 0.00 | 0.00 | 76 | 1021.2 |
| 20260508095313 | 32 | 173 | 4.3 | 7.0 | 0.00 | 0.00 | 0.00 | 77 | 1021.4 |
| 20260508094814 | 32 | 163 | 3.5 | 7.0 | 0.00 | 0.00 | 0.00 | 76 | 1021.2 |
| 20260508094313 | 32 | 176 | 3.5 | 6.1 | 0.00 | 0.00 | 0.00 | 76 | 1021.4 |
| 20260508093816 | 32 | 164 | 4.3 | 6.1 | 0.00 | 0.00 | 0.00 | 75 | 1021.4 |
| 20260508093310 | 33 | 149 | 4.3 | 6.1 | 0.00 | 0.00 | 0.00 | 74 | 1021.2 |
| 20260508093043 | 33 | 153 | 3.5 | 6.1 | 0.00 | 0.00 | 0.00 | 74 | 1021.4 |
| 20260508092313 | 33 | 146 | 2.6 | 5.2 | 0.00 | 0.00 | 0.00 | 74 | 1021.2 |
| 20260508091810 | 33 | 171 | 3.5 | 4.3 | 0.00 | 0.00 | 0.00 | 72 | 1021.4 |
| 20260508091311 | 34 | 173 | 3.5 | 6.1 | 0.00 | 0.00 | 0.00 | 71 | 1021.4 |
| 20260508090811 | 34 | 135 | 3.5 | 6.1 | 0.00 | 0.00 | 0.00 | 70 | 1021.4 |
| 20260508090310 | 34 | 169 | 2.6 | 4.3 | 0.00 | 0.00 | 0.00 | 69 | 1021.4 |
| 20260508090041 | 34 | 192 | 3.5 | 6.1 | 0.00 | 0.00 | 0.00 | 69 | 1021.4 |
| 20260508085308 | 34 | 203 | 4.3 | 7.0 | 0.00 | 0.00 | 0.00 | 67 | 1021.4 |
| 20260508084808 | 34 | 215 | 3.5 | 7.0 | 0.00 | 0.00 | 0.00 | 68 | 1021.4 |
| 20260508084307 | 34 | 209 | 3.5 | 5.2 | 0.00 | 0.00 | 0.00 | 69 | 1021.2 |
| 20260508083805 | 34 | 197 | 2.6 | 5.2 | 0.00 | 0.00 | 0.00 | 69 | 1021.2 |
| 20260508083305 | 33 | 212 | 3.5 | 6.1 | 0.00 | 0.00 | 0.00 | 68 | 1021.4 |
| 20260508082759 | 33 | 204 | 4.3 | 7.0 | 0.00 | 0.00 | 0.00 | 69 | 1021.4 |
| 20260508082258 | 33 | 213 | 4.3 | 7.0 | 0.00 | 0.00 | 0.00 | 70 | 1021.4 |
| 20260508081758 | 33 | 217 | 3.5 | 7.0 | 0.00 | 0.00 | 0.00 | 72 | 1021.5 |
| 20260508081259 | 32 | 200 | 4.3 | 7.0 | 0.00 | 0.00 | 0.00 | 72 | 1021.5 |
| 20260508080759 | 33 | 238 | 5.2 | 7.0 | 0.00 | 0.00 | 0.00 | 73 | 1021.4 |
| 20260508080259 | 32 | 267 | 4.3 | 7.0 | 0.00 | 0.00 | 0.00 | 73 | 1021.4 |
| 20260508075754 | 33 | 263 | 2.6 | 6.1 | 0.00 | 0.00 | 0.00 | 72 | 1021.4 |
| 20260508075255 | 33 | 228 | 1.7 | 3.5 | 0.00 | 0.00 | 0.00 | 70 | 1021.4 |
| 20260508074752 | 33 | 254 | 1.7 | 3.5 | 0.00 | 0.00 | 0.00 | 69 | 1021.4 |
| 20260508074253 | 34 | 253 | 1.7 | 3.5 | 0.00 | 0.00 | 0.00 | 68 | 1021.2 |
| 20260508073753 | 34 | 213 | 2.6 | 3.5 | 0.00 | 0.00 | 0.00 | 68 | 1021.4 |
| 20260508073253 | 34 | 213 | 2.6 | 5.2 | 0.00 | 0.00 | 0.00 | 65 | 1021.4 |
| 20260508073022 | 35 | 193 | 3.5 | 5.2 | 0.00 | 0.00 | 0.00 | 66 | 1021.5 |
| 20260508072523 | 35 | 192 | 2.6 | 5.2 | 0.00 | 0.00 | 0.00 | 69 | 1021.5 |
| 20260508071751 | 35 | 181 | 1.7 | 3.5 | 0.00 | 0.00 | 0.00 | 65 | 1021.6 |
| 20260508071251 | 36 | 188 | 2.6 | 5.2 | 0.00 | 0.00 | 0.00 | 66 | 1021.6 |
| 20260508070751 | 36 | 187 | 2.6 | 5.2 | 0.00 | 0.00 | 0.00 | 64 | 1021.6 |
| 20260508070251 | 36 | 180 | 2.6 | 4.3 | 0.00 | 0.00 | 0.00 | 60 | 1021.6 |
| 20260508065751 | 37 | 175 | 3.5 | 5.2 | 0.00 | 0.00 | 0.00 | 60 | 1021.6 |
| 20260508065245 | 37 | 217 | 3.5 | 5.2 | 0.00 | 0.00 | 0.00 | 60 | 1021.5 |
| 20260508064743 | 36 | 227 | 4.3 | 6.1 | 0.00 | 0.00 | 0.00 | 61 | 1021.4 |
| 20260508064244 | 36 | 218 | 4.3 | 7.8 | 0.00 | 0.00 | 0.00 | 61 | 1021.4 |
| 20260508063745 | 36 | 233 | 3.5 | 7.8 | 0.00 | 0.00 | 0.00 | 60 | 1021.4 |
| 20260508063245 | 37 | 254 | 2.6 | 6.1 | 0.00 | 0.00 | 0.00 | 59 | 1021.4 |
| 20260508062745 | 37 | 243 | 3.5 | 6.1 | 0.00 | 0.00 | 0.00 | 58 | 1021.2 |
| 20260508062238 | 38 | 260 | 3.5 | 6.1 | 0.00 | 0.00 | 0.00 | 58 | 1021.4 |
| 20260508061739 | 38 | 269 | 2.6 | 5.2 | 0.00 | 0.00 | 0.00 | 56 | 1021.4 |
| 20260508061238 | 39 | 245 | 2.6 | 4.3 | 0.00 | 0.00 | 0.00 | 55 | 1021.4 |
| 20260508060739 | 39 | 236 | 2.6 | 4.3 | 0.00 | 0.00 | 0.00 | 54 | 1021.4 |
| 20260508060239 | 39 | 236 | 3.5 | 4.3 | 0.00 | 0.00 | 0.00 | 54 | 1021.4 |
| 20260508055739 | 40 | 229 | 2.6 | 4.3 | 0.00 | 0.00 | 0.00 | 54 | 1021.4 |
| 20260508055237 | 40 | 216 | 2.6 | 3.5 | 0.00 | 0.00 | 0.00 | 55 | 1021.4 |
| 20260508054734 | 40 | 208 | 2.6 | 4.3 | 0.00 | 0.00 | 0.00 | 54 | 1021.6 |
| 20260508054235 | 40 | 209 | 2.6 | 6.1 | 0.00 | 0.00 | 0.00 | 53 | 1021.6 |
| 20260508053735 | 40 | 257 | 2.6 | 6.1 | 0.00 | 0.00 | 0.00 | 54 | 1021.6 |
| 20260508053233 | 40 | 253 | 2.6 | 4.3 | 0.00 | 0.00 | 0.00 | 53 | 1021.5 |
| 20260508053003 | 41 | 246 | 2.6 | 3.5 | 0.00 | 0.00 | 0.00 | 52 | 1021.5 |
| 20260508052502 | 41 | 244 | 2.6 | 3.5 | 0.00 | 0.00 | 0.00 | 52 | 1021.6 |
| 20260508051730 | 42 | 229 | 1.7 | 3.5 | 0.00 | 0.00 | 0.00 | 51 | 1021.7 |
| 20260508051229 | 42 | 234 | 1.7 | 3.5 | 0.00 | 0.00 | 0.00 | 51 | 1021.6 |
| 20260508050729 | 42 | 238 | 2.6 | 3.5 | 0.00 | 0.00 | 0.00 | 50 | 1021.7 |
| 20260508050227 | 42 | 217 | 2.6 | 3.5 | 0.00 | 0.00 | 0.00 | 50 | 1021.5 |
| 20260508045958 | 42 | 236 | 2.6 | 3.5 | 0.00 | 0.00 | 0.00 | 48 | 1021.6 |
| 20260508045224 | 42 | 203 | 2.6 | 3.5 | 0.00 | 0.00 | 0.00 | 48 | 1021.5 |
| 20260508044725 | 42 | 216 | 1.7 | 3.5 | 0.00 | 0.00 | 0.00 | 48 | 1021.6 |
| 20260508044229 | 43 | 223 | 0.9 | 2.6 | 0.00 | 0.00 | 0.00 | 47 | 1021.7 |
| 20260508044225 | 43 | 203 | 0.9 | 2.6 | 0.00 | 0.00 | 0.00 | 47 | 1021.6 |
| 20260508043225 | 43 | 206 | 0.0 | 2.6 | 0.00 | 0.00 | 0.00 | 47 | 1021.7 |
| 20260508042724 | 43 | 169 | 0.9 | 4.3 | 0.00 | 0.00 | 0.00 | 47 | 1021.6 |
| 20260508042224 | 43 | 167 | 1.7 | 4.3 | 0.00 | 0.00 | 0.00 | 48 | 1021.7 |
| 20260508041718 | 43 | 175 | 2.6 | 5.2 | 0.00 | 0.00 | 0.00 | 47 | 1021.5 |
| 20260508041217 | 44 | 212 | 3.5 | 6.1 | 0.00 | 0.00 | 0.00 | 45 | 1021.6 |
| 20260508040717 | 43 | 205 | 3.5 | 6.1 | 0.00 | 0.00 | 0.00 | 45 | 1021.6 |
| 20260508040217 | 43 | 203 | 2.6 | 6.1 | 0.00 | 0.00 | 0.00 | 45 | 1021.5 |
| 20260508035716 | 43 | 254 | 2.6 | 4.3 | 0.00 | 0.00 | 0.00 | 46 | 1021.5 |
| 20260508035216 | 43 | 254 | 2.6 | 6.1 | 0.00 | 0.00 | 0.00 | 46 | 1021.5 |
| 20260508034717 | 43 | 136 | 3.5 | 6.1 | 0.00 | 0.00 | 0.00 | 44 | 1021.2 |
| 20260508034215 | 43 | 192 | 4.3 | 7.8 | 0.00 | 0.00 | 0.00 | 43 | 1021.2 |
| 20260508033717 | 42 | 203 | 4.3 | 7.8 | 0.00 | 0.00 | 0.00 | 45 | 1021.2 |
| 20260508033442 | 42 | 254 | 3.5 | 6.1 | 0.00 | 0.00 | 0.00 | 46 | 1021.2 |
| 20260508032712 | 42 | 251 | 1.7 | 5.2 | 0.00 | 0.00 | 0.00 | 45 | 1021.1 |
| 20260508032212 | 43 | 190 | 1.7 | 3.5 | 0.00 | 0.00 | 0.00 | 45 | 1021.0 |
| 20260508031712 | 43 | 192 | 1.7 | 4.3 | 0.00 | 0.00 | 0.00 | 43 | 1021.0 |
| 20260508031211 | 43 | 191 | 1.7 | 4.3 | 0.00 | 0.00 | 0.00 | 43 | 1020.8 |
| 20260508030713 | 44 | 216 | 1.7 | 5.2 | 0.00 | 0.00 | 0.00 | 42 | 1020.8 |
| 20260508030208 | 44 | 177 | 2.6 | 5.2 | 0.00 | 0.00 | 0.00 | 42 | 1020.7 |
| 20260508025708 | 45 | 221 | 2.6 | 5.2 | 0.00 | 0.00 | 0.00 | 41 | 1020.7 |
| 20260508025209 | 46 | 216 | 1.7 | 4.3 | 0.00 | 0.00 | 0.00 | 38 | 1020.6 |
| 20260508024708 | 46 | 147 | 1.7 | 4.3 | 0.00 | 0.00 | 0.00 | 38 | 1020.4 |
| 20260508024208 | 46 | 34 | 1.7 | 3.5 | 0.00 | 0.00 | 0.00 | 38 | 1020.4 |
| 20260508023709 | 46 | 348 | 0.9 | 2.6 | 0.00 | 0.00 | 0.00 | 37 | 1020.3 |
| 20260508023203 | 47 | 340 | 0.9 | 2.6 | 0.00 | 0.00 | 0.00 | 36 | 1020.3 |
| 20260508022704 | 48 | 5 | 0.9 | 2.6 | 0.00 | 0.00 | 0.00 | 34 | 1020.2 |
| 20260508022205 | 49 | 305 | 1.7 | 2.6 | 0.00 | 0.00 | 0.00 | 34 | 1020.2 |
| 20260508021704 | 50 | 24 | 1.7 | 3.5 | 0.00 | 0.00 | 0.00 | 33 | 1020.0 |
| 20260508021203 | 51 | 317 | 1.7 | 3.5 | 0.00 | 0.00 | 0.00 | 32 | 1020.2 |
| 20260508020705 | 51 | 335 | 1.7 | 5.2 | 0.00 | 0.00 | 0.00 | 31 | 1020.0 |
| 20260508020205 | 51 | 331 | 1.7 | 4.3 | 0.00 | 0.00 | 0.00 | 31 | 1020.0 |
| 20260508020200 | 51 | 270 | 1.7 | 5.2 | 0.00 | 0.00 | 0.00 | 31 | 1020.0 |
| 20260508015200 | 52 | 335 | 1.7 | 4.3 | 0.00 | 0.00 | 0.00 | 31 | 1019.9 |
| 20260508014659 | 52 | 317 | 1.7 | 5.2 | 0.00 | 0.00 | 0.00 | 30 | 1019.9 |
| 20260508014159 | 52 | 332 | 1.7 | 5.2 | 0.00 | 0.00 | 0.00 | 29 | 1019.9 |
| 20260508013701 | 53 | 355 | 1.7 | 5.2 | 0.00 | 0.00 | 0.00 | 29 | 1019.9 |
| 20260508013155 | 53 | 312 | 2.6 | 6.1 | 0.00 | 0.00 | 0.00 | 29 | 1019.8 |
| 20260508012927 | 54 | 322 | 3.5 | 7.8 | 0.00 | 0.00 | 0.00 | 29 | 1019.8 |
| 20260508012154 | 54 | 318 | 5.2 | 8.7 | 0.00 | 0.00 | 0.00 | 28 | 1019.7 |
| 20260508011654 | 55 | 19 | 6.1 | 10.4 | 0.00 | 0.00 | 0.00 | 27 | 1019.7 |
| 20260508011155 | 55 | 46 | 6.1 | 10.4 | 0.00 | 0.00 | 0.00 | 27 | 1019.7 |
| 20260508010655 | 56 | 350 | 5.2 | 9.6 | 0.00 | 0.00 | 0.00 | 27 | 1019.7 |
| 20260508010650 | 56 | 12 | 5.2 | 10.4 | 0.00 | 0.00 | 0.00 | 27 | 1019.7 |
| 20260508005654 | 56 | 47 | 6.1 | 13.9 | 0.00 | 0.00 | 0.00 | 26 | 1019.7 |
| 20260508005649 | 56 | 19 | 6.1 | 10.4 | 0.00 | 0.00 | 0.00 | 27 | 1019.7 |
| 20260508005149 | 56 | 15 | 6.1 | 13.9 | 0.00 | 0.00 | 0.00 | 27 | 1019.7 |
| 20260508004148 | 57 | 5 | 7.0 | 15.6 | 0.00 | 0.00 | 0.00 | 26 | 1019.7 |
| 20260508003647 | 58 | 338 | 7.0 | 15.6 | 0.00 | 0.00 | 0.00 | 25 | 1019.7 |
| 20260508003147 | 58 | 44 | 6.1 | 11.3 | 0.00 | 0.00 | 0.00 | 24 | 1019.5 |
| 20260508002643 | 58 | 43 | 6.1 | 13.0 | 0.00 | 0.00 | 0.00 | 25 | 1019.5 |
| 20260508002141 | 58 | 5 | 7.0 | 13.9 | 0.00 | 0.00 | 0.00 | 25 | 1019.4 |
| 20260508001641 | 59 | 330 | 5.2 | 13.9 | 0.00 | 0.00 | 0.00 | 24 | 1019.7 |
| 20260508001412 | 59 | 11 | 4.3 | 12.2 | 0.00 | 0.00 | 0.00 | 24 | 1019.4 |
| 20260508000641 | 58 | 327 | 5.2 | 17.4 | 0.00 | 0.00 | 0.00 | 23 | 1019.5 |
| 20260508000141 | 58 | 32 | 7.0 | 17.4 | 0.00 | 0.00 | 0.00 | 24 | 1019.5 |
| 20260507235642 | 59 | 35 | 7.0 | 15.6 | 0.00 | 0.00 | 0.00 | 23 | 1019.4 |
| 20260507235137 | 59 | 27 | 4.3 | 19.1 | 0.00 | 0.00 | 0.00 | 23 | 1019.4 |
| 20260507234908 | 60 | 98 | 2.6 | 19.1 | 0.00 | 0.00 | 0.00 | 23 | 1019.4 |
| 20260507234137 | 59 | 338 | 4.3 | 10.4 | 0.00 | 0.00 | 0.00 | 23 | 1019.4 |
| 20260507233637 | 59 | 349 | 5.2 | 22.6 | 0.00 | 0.00 | 0.00 | 23 | 1019.5 |
| 20260507233137 | 60 | 320 | 4.3 | 22.6 | 0.00 | 0.00 | 0.00 | 23 | 1019.5 |
| 20260507232643 | 60 | 5 | 4.3 | 10.4 | 0.00 | 0.00 | 0.00 | 24 | 1019.5 |
| 20260507232638 | 60 | 269 | 4.3 | 10.4 | 0.00 | 0.00 | 0.00 | 24 | 1019.5 |
| 20260507231633 | 60 | 250 | 4.3 | 10.4 | 0.00 | 0.00 | 0.00 | 22 | 1019.5 |
| 20260507231131 | 60 | 355 | 5.2 | 13.0 | 0.00 | 0.00 | 0.00 | 23 | 1019.5 |
| 20260507230901 | 60 | 326 | 7.0 | 19.1 | 0.00 | 0.00 | 0.00 | 23 | 1019.7 |
| 20260507230131 | 61 | 295 | 8.7 | 19.1 | 0.00 | 0.00 | 0.00 | 23 | 1019.5 |
| 20260507225627 | 60 | 233 | 7.8 | 15.6 | 0.00 | 0.00 | 0.00 | 22 | 1019.4 |
| 20260507225128 | 60 | 307 | 7.0 | 15.6 | 0.00 | 0.00 | 0.00 | 23 | 1019.5 |
| 20260507224623 | 60 | 325 | 7.0 | 18.2 | 0.00 | 0.00 | 0.00 | 24 | 1019.5 |
| 20260507224122 | 59 | 281 | 6.1 | 18.2 | 0.00 | 0.00 | 0.00 | 23 | 1019.5 |
| 20260507223623 | 58 | 290 | 7.8 | 20.0 | 0.00 | 0.00 | 0.00 | 23 | 1019.5 |
| 20260507223122 | 58 | 281 | 10.4 | 20.9 | 0.00 | 0.00 | 0.00 | 23 | 1019.8 |
| 20260507222622 | 60 | 237 | 7.8 | 20.9 | 0.00 | 0.00 | 0.00 | 21 | 1019.7 |
| 20260507222122 | 60 | 294 | 6.1 | 12.2 | 0.00 | 0.00 | 0.00 | 21 | 1019.5 |
| 20260507221616 | 60 | 28 | 6.1 | 13.9 | 0.00 | 0.00 | 0.00 | 24 | 1019.7 |
| 20260507221116 | 61 | 306 | 6.1 | 13.9 | 0.00 | 0.00 | 0.00 | 22 | 1019.5 |
| 20260507220616 | 60 | 65 | 6.1 | 11.3 | 0.00 | 0.00 | 0.00 | 23 | 1019.5 |
| 20260507220116 | 61 | 36 | 6.1 | 13.0 | 0.00 | 0.00 | 0.00 | 22 | 1019.4 |
| 20260507215616 | 61 | 171 | 5.2 | 13.0 | 0.00 | 0.00 | 0.00 | 20 | 1019.5 |
| 20260507215116 | 61 | 33 | 5.2 | 13.9 | 0.00 | 0.00 | 0.00 | 22 | 1019.5 |
| 20260507214841 | 61 | 202 | 7.0 | 14.8 | 0.00 | 0.00 | 0.00 | 22 | 1019.7 |
| 20260507214109 | 61 | 268 | 6.1 | 14.8 | 0.00 | 0.00 | 0.00 | 19 | 1019.5 |
| 20260507213609 | 61 | 355 | 4.3 | 10.4 | 0.00 | 0.00 | 0.00 | 22 | 1019.7 |
| 20260507213110 | 61 | 109 | 4.3 | 9.6 | 0.00 | 0.00 | 0.00 | 20 | 1019.7 |
| 20260507212610 | 61 | 355 | 6.1 | 10.4 | 0.00 | 0.00 | 0.00 | 20 | 1019.8 |
| 20260507212110 | 61 | 312 | 5.2 | 11.3 | 0.00 | 0.00 | 0.00 | 20 | 1019.9 |
| 20260507211609 | 61 | 32 | 5.2 | 14.8 | 0.00 | 0.00 | 0.00 | 21 | 1019.9 |
| 20260507211605 | 61 | 284 | 5.2 | 14.8 | 0.00 | 0.00 | 0.00 | 21 | 1019.9 |
| 20260507210604 | 61 | 308 | 5.2 | 13.9 | 0.00 | 0.00 | 0.00 | 22 | 1019.9 |
| 20260507210336 | 61 | 335 | 5.2 | 12.2 | 0.00 | 0.00 | 0.00 | 21 | 1020.0 |
| 20260507205604 | 60 | 0 | 6.1 | 13.9 | 0.00 | 0.00 | 0.00 | 22 | 1020.0 |
| 20260507205104 | 61 | 355 | 7.0 | 13.9 | 0.00 | 0.00 | 0.00 | 23 | 1020.0 |
| 20260507204559 | 61 | 303 | 6.1 | 13.0 | 0.00 | 0.00 | 0.00 | 23 | 1020.0 |
| 20260507204100 | 60 | 44 | 5.2 | 13.0 | 0.00 | 0.00 | 0.00 | 21 | 1020.2 |
| 20260507203830 | 60 | 32 | 4.3 | 13.0 | 0.00 | 0.00 | 0.00 | 22 | 1020.0 |
| 20260507203100 | 60 | 291 | 6.1 | 14.8 | 0.00 | 0.00 | 0.00 | 19 | 1020.3 |
| 20260507202558 | 60 | 33 | 6.1 | 14.8 | 0.00 | 0.00 | 0.00 | 21 | 1020.3 |
| 20260507202057 | 60 | 327 | 7.0 | 12.2 | 0.00 | 0.00 | 0.00 | 20 | 1020.4 |
| 20260507201551 | 60 | 27 | 7.0 | 12.2 | 0.00 | 0.00 | 0.00 | 20 | 1020.4 |
| 20260507201052 | 59 | 328 | 7.8 | 15.6 | 0.00 | 0.00 | 0.00 | 23 | 1020.6 |
| 20260507200823 | 59 | 278 | 7.8 | 15.6 | 0.00 | 0.00 | 0.00 | 21 | 1020.4 |
| 20260507200052 | 59 | 263 | 7.8 | 21.7 | 0.00 | 0.00 | 0.00 | 22 | 1020.6 |
| 20260507195552 | 60 | 44 | 7.8 | 21.7 | 0.00 | 0.00 | 0.00 | 22 | 1020.6 |
| 20260507195051 | 59 | 259 | 7.0 | 14.8 | 0.00 | 0.00 | 0.00 | 22 | 1020.6 |
| 20260507194549 | 60 | 294 | 7.0 | 14.8 | 0.00 | 0.00 | 0.00 | 22 | 1020.7 |
| 20260507194322 | 60 | 313 | 6.1 | 13.0 | 0.00 | 0.00 | 0.00 | 24 | 1020.6 |
| 20260507193550 | 59 | 17 | 5.2 | 13.0 | 0.00 | 0.00 | 0.00 | 24 | 1020.8 |
| 20260507193050 | 59 | 92 | 4.3 | 11.3 | 0.00 | 0.00 | 0.00 | 23 | 1020.7 |
| 20260507192550 | 59 | 57 | 4.3 | 10.4 | 0.00 | 0.00 | 0.00 | 23 | 1020.8 |
| 20260507192050 | 59 | 247 | 4.3 | 10.4 | 0.00 | 0.00 | 0.00 | 24 | 1021.1 |
| 20260507191550 | 59 | 11 | 5.2 | 13.0 | 0.00 | 0.00 | 0.00 | 21 | 1021.0 |
| 20260507191047 | 59 | 31 | 5.2 | 13.0 | 0.00 | 0.00 | 0.00 | 22 | 1021.0 |
| 20260507190820 | 59 | 9 | 5.2 | 12.2 | 0.00 | 0.00 | 0.00 | 22 | 1021.1 |
| 20260507190047 | 59 | 78 | 4.3 | 10.4 | 0.00 | 0.00 | 0.00 | 23 | 1021.0 |
| 20260507185547 | 58 | 32 | 3.5 | 10.4 | 0.00 | 0.00 | 0.00 | 22 | 1020.8 |
| 20260507185046 | 58 | 324 | 1.7 | 7.0 | 0.00 | 0.00 | 0.00 | 21 | 1021.0 |
| 20260507184818 | 58 | 309 | 2.6 | 7.0 | 0.00 | 0.00 | 0.00 | 22 | 1021.2 |
| 20260507184048 | 58 | 68 | 3.5 | 12.2 | 0.00 | 0.00 | 0.00 | 21 | 1021.2 |
| 20260507183547 | 56 | 123 | 4.3 | 8.7 | 0.00 | 0.00 | 0.00 | 20 | 1021.2 |
| 20260507183543 | 57 | 53 | 4.3 | 12.2 | 0.00 | 0.00 | 0.00 | 24 | 1021.2 |
| 20260507182543 | 56 | 140 | 4.3 | 8.7 | 0.00 | 0.00 | 0.00 | 21 | 1021.4 |
| 20260507182043 | 56 | 107 | 3.5 | 8.7 | 0.00 | 0.00 | 0.00 | 23 | 1021.4 |
| 20260507181543 | 55 | 101 | 4.3 | 11.3 | 0.00 | 0.01 | 0.00 | 21 | 1021.4 |
| 20260507181044 | 56 | 116 | 5.2 | 11.3 | 0.00 | 0.01 | 0.00 | 20 | 1021.5 |
| 20260507180544 | 56 | 217 | 4.3 | 10.4 | 0.00 | 0.01 | 0.00 | 22 | 1021.5 |
| 20260507180038 | 55 | 140 | 5.2 | 12.2 | 0.00 | 0.02 | 0.00 | 22 | 1021.6 |
| 20260507175538 | 55 | 178 | 5.2 | 12.2 | 0.00 | 0.02 | 0.00 | 21 | 1021.6 |
| 20260507175037 | 54 | 161 | 3.5 | 7.8 | 0.00 | 0.02 | 0.00 | 23 | 1021.7 |
| 20260507174536 | 54 | 198 | 2.6 | 6.1 | 0.00 | 0.02 | 0.00 | 23 | 1021.7 |
| 20260507174307 | 53 | 198 | 1.7 | 6.1 | 0.00 | 0.02 | 0.00 | 22 | 1022.0 |
| 20260507173537 | 52 | 300 | 1.7 | 4.3 | 0.00 | 0.02 | 0.00 | 22 | 1022.0 |
| 20260507173037 | 52 | 196 | 2.6 | 7.8 | 0.00 | 0.02 | 0.00 | 22 | 1022.1 |
| 20260507172537 | 52 | 5 | 3.5 | 7.8 | 0.00 | 0.02 | 0.00 | 22 | 1022.1 |
| 20260507172310 | 52 | 244 | 2.6 | 6.1 | 0.00 | 0.02 | 0.00 | 24 | 1022.3 |